sensor_id;sensor_type;location;lat;lon;timestamp;temperature;humidity
23102;DHT22;11720;51.214;22.574;2023-08-21T00:20:03;22.30;99.90
23102;DHT22;11720;51.214;22.574;2023-08-21T01:06:19;21.70;99.90
23102;DHT22;11720;51.214;22.574;2023-08-21T01:09:01;21.60;99.90
23102;DHT22;11720;51.214;22.574;2023-08-21T01:11:46;21.60;99.90
23102;DHT22;11720;51.214;22.574;2023-08-21T01:14:47;21.60;99.90
23102;DHT22;11720;51.214;22.574;2023-08-21T01:17:15;21.50;99.90
23102;DHT22;11720;51.214;22.574;2023-08-21T01:19:43;21.50;99.90
23102;DHT22;11720;51.214;22.574;2023-08-21T01:34:34;21.40;99.90
23102;DHT22;11720;51.214;22.574;2023-08-21T01:37:01;21.40;99.90
23102;DHT22;11720;51.214;22.574;2023-08-21T01:39:27;21.40;99.90
23102;DHT22;11720;51.214;22.574;2023-08-21T01:44:21;21.20;99.90
23102;DHT22;11720;51.214;22.574;2023-08-21T02:52:42;20.90;99.90
23102;DHT22;11720;51.214;22.574;2023-08-21T03:31:50;20.80;99.90
23102;DHT22;11720;51.214;22.574;2023-08-21T03:36:43;20.80;99.90
23102;DHT22;11720;51.214;22.574;2023-08-21T03:39:16;20.80;99.90
23102;DHT22;11720;51.214;22.574;2023-08-21T03:44:16;20.80;99.90
23102;DHT22;11720;51.214;22.574;2023-08-21T03:46:52;20.80;99.90
23102;DHT22;11720;51.214;22.574;2023-08-21T03:56:47;20.90;99.90
23102;DHT22;11720;51.214;22.574;2023-08-21T04:13:57;21.00;99.90
23102;DHT22;11720;51.214;22.574;2023-08-21T04:43:30;21.60;99.90
23102;DHT22;11720;51.214;22.574;2023-08-21T04:50:52;18.20;99.90
23102;DHT22;11720;51.214;22.574;2023-08-21T05:08:05;22.20;99.90
23102;DHT22;11720;51.214;22.574;2023-08-21T05:17:49;22.40;99.90
23102;DHT22;11720;51.214;22.574;2023-08-21T05:20:15;22.50;99.90
23102;DHT22;11720;51.214;22.574;2023-08-21T05:22:41;22.60;99.90
23102;DHT22;11720;51.214;22.574;2023-08-21T05:25:07;22.80;99.90
23102;DHT22;11720;51.214;22.574;2023-08-21T05:27:33;22.90;99.90
23102;DHT22;11720;51.214;22.574;2023-08-21T05:29:59;22.90;99.90
23102;DHT22;11720;51.214;22.574;2023-08-21T05:32:24;23.00;99.90
23102;DHT22;11720;51.214;22.574;2023-08-21T05:34:50;23.20;99.90
23102;DHT22;11720;51.214;22.574;2023-08-21T05:37:15;23.20;99.90
23102;DHT22;11720;51.214;22.574;2023-08-21T05:39:41;23.30;99.90
23102;DHT22;11720;51.214;22.574;2023-08-21T05:42:07;23.40;99.90
23102;DHT22;11720;51.214;22.574;2023-08-21T05:44:32;23.40;99.90
23102;DHT22;11720;51.214;22.574;2023-08-21T05:46:58;23.40;99.90
23102;DHT22;11720;51.214;22.574;2023-08-21T05:49:23;23.30;99.90
23102;DHT22;11720;51.214;22.574;2023-08-21T05:51:49;23.40;99.90
23102;DHT22;11720;51.214;22.574;2023-08-21T05:54:15;23.40;99.90
23102;DHT22;11720;51.214;22.574;2023-08-21T05:56:40;23.60;99.90
23102;DHT22;11720;51.214;22.574;2023-08-21T05:59:06;23.60;99.90
23102;DHT22;11720;51.214;22.574;2023-08-21T06:01:31;23.70;99.90
23102;DHT22;11720;51.214;22.574;2023-08-21T06:03:57;23.80;99.90
23102;DHT22;11720;51.214;22.574;2023-08-21T06:06:23;23.50;99.90
23102;DHT22;11720;51.214;22.574;2023-08-21T06:11:15;24.00;99.90
23102;DHT22;11720;51.214;22.574;2023-08-21T06:20:59;24.40;99.90
23102;DHT22;11720;51.214;22.574;2023-08-21T06:23:28;24.40;99.90
23102;DHT22;11720;51.214;22.574;2023-08-21T06:25:53;24.50;99.90
23102;DHT22;11720;51.214;22.574;2023-08-21T06:28:19;24.60;99.90
23102;DHT22;11720;51.214;22.574;2023-08-21T06:30:44;24.80;99.90
23102;DHT22;11720;51.214;22.574;2023-08-21T06:33:10;24.90;99.90
23102;DHT22;11720;51.214;22.574;2023-08-21T06:38:03;25.80;99.90
23102;DHT22;11720;51.214;22.574;2023-08-21T06:47:48;25.80;99.90
23102;DHT22;11720;51.214;22.574;2023-08-21T06:50:16;26.00;99.90
23102;DHT22;11720;51.214;22.574;2023-08-21T06:52:41;26.00;99.90
23102;DHT22;11720;51.214;22.574;2023-08-21T06:57:33;26.40;99.90
23102;DHT22;11720;51.214;22.574;2023-08-21T07:02:25;26.60;99.90
23102;DHT22;11720;51.214;22.574;2023-08-21T07:04:50;26.60;99.90
23102;DHT22;11720;51.214;22.574;2023-08-21T07:07:16;26.80;99.90
23102;DHT22;11720;51.214;22.574;2023-08-21T07:09:42;26.90;99.90
23102;DHT22;11720;51.214;22.574;2023-08-21T07:12:08;27.00;99.90
23102;DHT22;11720;51.214;22.574;2023-08-21T07:14:33;27.00;99.90
23102;DHT22;11720;51.214;22.574;2023-08-21T07:19:25;27.40;99.90
23102;DHT22;11720;51.214;22.574;2023-08-21T07:21:50;27.40;99.90
23102;DHT22;11720;51.214;22.574;2023-08-21T07:24:16;27.50;99.90
23102;DHT22;11720;51.214;22.574;2023-08-21T07:26:42;27.60;99.90
23102;DHT22;11720;51.214;22.574;2023-08-21T07:29:08;27.90;99.90
23102;DHT22;11720;51.214;22.574;2023-08-21T07:34:00;27.90;99.90
23102;DHT22;11720;51.214;22.574;2023-08-21T07:38:51;28.10;99.90
23102;DHT22;11720;51.214;22.574;2023-08-21T07:41:17;28.00;99.90
23102;DHT22;11720;51.214;22.574;2023-08-21T07:43:44;28.00;99.90
23102;DHT22;11720;51.214;22.574;2023-08-21T07:46:11;27.90;99.90
23102;DHT22;11720;51.214;22.574;2023-08-21T07:48:44;28.20;99.90
23102;DHT22;11720;51.214;22.574;2023-08-21T07:51:10;28.10;99.90
23102;DHT22;11720;51.214;22.574;2023-08-21T07:53:36;28.10;99.90
23102;DHT22;11720;51.214;22.574;2023-08-21T07:56:03;28.20;99.90
23102;DHT22;11720;51.214;22.574;2023-08-21T07:58:29;28.00;99.90
23102;DHT22;11720;51.214;22.574;2023-08-21T08:00:56;28.40;99.90
23102;DHT22;11720;51.214;22.574;2023-08-21T08:03:21;28.40;99.90
23102;DHT22;11720;51.214;22.574;2023-08-21T08:08:13;28.50;99.90
23102;DHT22;11720;51.214;22.574;2023-08-21T08:10:40;28.60;99.90
23102;DHT22;11720;51.214;22.574;2023-08-21T08:13:06;28.60;99.90
23102;DHT22;11720;51.214;22.574;2023-08-21T08:18:01;28.80;99.80
23102;DHT22;11720;51.214;22.574;2023-08-21T08:20:28;28.80;99.90
23102;DHT22;11720;51.214;22.574;2023-08-21T08:22:53;28.90;99.30
23102;DHT22;11720;51.214;22.574;2023-08-21T08:25:19;28.90;97.90
23102;DHT22;11720;51.214;22.574;2023-08-21T08:30:11;29.10;99.90
23102;DHT22;11720;51.214;22.574;2023-08-21T08:32:37;29.20;99.00
23102;DHT22;11720;51.214;22.574;2023-08-21T08:35:03;29.20;98.00
23102;DHT22;11720;51.214;22.574;2023-08-21T08:39:54;29.40;98.10
23102;DHT22;11720;51.214;22.574;2023-08-21T08:42:20;29.40;95.90
23102;DHT22;11720;51.214;22.574;2023-08-21T08:44:47;29.50;94.90
23102;DHT22;11720;51.214;22.574;2023-08-21T08:47:13;29.60;94.20
23102;DHT22;11720;51.214;22.574;2023-08-21T08:49:40;29.60;94.30
23102;DHT22;11720;51.214;22.574;2023-08-21T08:52:06;29.70;94.00
23102;DHT22;11720;51.214;22.574;2023-08-21T08:54:32;29.70;93.90
23102;DHT22;11720;51.214;22.574;2023-08-21T08:59:30;29.60;93.20
23102;DHT22;11720;51.214;22.574;2023-08-21T09:01:55;29.80;93.50
23102;DHT22;11720;51.214;22.574;2023-08-21T09:06:48;29.60;96.70
23102;DHT22;11720;51.214;22.574;2023-08-21T09:09:14;29.80;92.20
23102;DHT22;11720;51.214;22.574;2023-08-21T09:11:43;29.80;92.40
23102;DHT22;11720;51.214;22.574;2023-08-21T09:21:30;29.80;91.70
23102;DHT22;11720;51.214;22.574;2023-08-21T09:23:59;29.70;92.40
23102;DHT22;11720;51.214;22.574;2023-08-21T09:26:25;29.70;92.80
23102;DHT22;11720;51.214;22.574;2023-08-21T09:28:52;29.60;92.70
23102;DHT22;11720;51.214;22.574;2023-08-21T09:31:44;29.40;95.30
23102;DHT22;11720;51.214;22.574;2023-08-21T09:34:11;29.50;96.00
23102;DHT22;11720;51.214;22.574;2023-08-21T09:36:38;29.40;94.00
23102;DHT22;11720;51.214;22.574;2023-08-21T09:39:04;29.30;93.80
23102;DHT22;11720;51.214;22.574;2023-08-21T09:41:32;29.30;95.00
23102;DHT22;11720;51.214;22.574;2023-08-21T09:44:01;29.20;95.70
23102;DHT22;11720;51.214;22.574;2023-08-21T09:46:27;28.70;99.90
23102;DHT22;11720;51.214;22.574;2023-08-21T09:48:54;28.70;99.10
23102;DHT22;11720;51.214;22.574;2023-08-21T09:51:20;28.80;99.90
23102;DHT22;11720;51.214;22.574;2023-08-21T09:53:48;28.70;99.30
23102;DHT22;11720;51.214;22.574;2023-08-21T09:56:15;28.50;99.90
23102;DHT22;11720;51.214;22.574;2023-08-21T09:58:43;28.30;99.90
23102;DHT22;11720;51.214;22.574;2023-08-21T10:01:09;28.10;99.90
23102;DHT22;11720;51.214;22.574;2023-08-21T10:03:43;27.90;99.90
23102;DHT22;11720;51.214;22.574;2023-08-21T10:06:16;27.70;99.90
23102;DHT22;11720;51.214;22.574;2023-08-21T10:08:46;27.50;99.90
23102;DHT22;11720;51.214;22.574;2023-08-21T10:11:14;27.20;99.90
23102;DHT22;11720;51.214;22.574;2023-08-21T10:18:37;26.80;99.90
23102;DHT22;11720;51.214;22.574;2023-08-21T10:23:41;26.50;99.90
23102;DHT22;11720;51.214;22.574;2023-08-21T10:26:09;26.70;99.90
23102;DHT22;11720;51.214;22.574;2023-08-21T10:28:43;26.70;99.90
23102;DHT22;11720;51.214;22.574;2023-08-21T10:33:55;26.60;99.90
23102;DHT22;11720;51.214;22.574;2023-08-21T10:39:18;26.70;99.90
23102;DHT22;11720;51.214;22.574;2023-08-21T10:42:06;26.60;99.90
23102;DHT22;11720;51.214;22.574;2023-08-21T10:47:18;26.70;99.90
23102;DHT22;11720;51.214;22.574;2023-08-21T10:49:45;26.70;99.90
23102;DHT22;11720;51.214;22.574;2023-08-21T10:52:11;26.70;99.90
23102;DHT22;11720;51.214;22.574;2023-08-21T10:54:54;26.70;99.90
23102;DHT22;11720;51.214;22.574;2023-08-21T10:57:21;26.80;99.90
23102;DHT22;11720;51.214;22.574;2023-08-21T10:59:51;26.70;99.90
23102;DHT22;11720;51.214;22.574;2023-08-21T11:02:18;26.70;99.90
23102;DHT22;11720;51.214;22.574;2023-08-21T11:04:44;26.90;99.90
23102;DHT22;11720;51.214;22.574;2023-08-21T11:07:10;26.70;99.90
23102;DHT22;11720;51.214;22.574;2023-08-21T11:09:36;26.80;99.90
23102;DHT22;11720;51.214;22.574;2023-08-21T11:12:10;26.90;99.90
23102;DHT22;11720;51.214;22.574;2023-08-21T11:14:37;27.00;99.90
23102;DHT22;11720;51.214;22.574;2023-08-21T11:17:03;27.00;99.90
23102;DHT22;11720;51.214;22.574;2023-08-21T11:19:33;27.20;99.90
23102;DHT22;11720;51.214;22.574;2023-08-21T11:22:00;27.30;99.90
23102;DHT22;11720;51.214;22.574;2023-08-21T11:27:10;27.20;99.90
23102;DHT22;11720;51.214;22.574;2023-08-21T11:29:48;27.30;99.90
23102;DHT22;11720;51.214;22.574;2023-08-21T11:32:16;27.20;99.90
23102;DHT22;11720;51.214;22.574;2023-08-21T11:34:54;27.00;99.90
23102;DHT22;11720;51.214;22.574;2023-08-21T11:37:23;27.00;99.90
23102;DHT22;11720;51.214;22.574;2023-08-21T11:42:16;27.20;99.90
23102;DHT22;11720;51.214;22.574;2023-08-21T11:44:47;27.60;99.90
23102;DHT22;11720;51.214;22.574;2023-08-21T11:47:13;27.70;99.90
23102;DHT22;11720;51.214;22.574;2023-08-21T11:49:43;27.80;99.90
23102;DHT22;11720;51.214;22.574;2023-08-21T11:52:12;28.20;99.90
23102;DHT22;11720;51.214;22.574;2023-08-21T11:54:39;28.20;99.90
23102;DHT22;11720;51.214;22.574;2023-08-21T11:57:12;28.30;99.90
23102;DHT22;11720;51.214;22.574;2023-08-21T11:59:39;28.30;99.90
23102;DHT22;11720;51.214;22.574;2023-08-21T12:02:10;28.40;99.90
23102;DHT22;11720;51.214;22.574;2023-08-21T12:04:35;28.50;99.90
23102;DHT22;11720;51.214;22.574;2023-08-21T12:07:02;28.40;99.90
23102;DHT22;11720;51.214;22.574;2023-08-21T12:09:28;28.60;99.90
23102;DHT22;11720;51.214;22.574;2023-08-21T12:11:54;28.70;99.90
23102;DHT22;11720;51.214;22.574;2023-08-21T12:16:46;29.30;99.90
23102;DHT22;11720;51.214;22.574;2023-08-21T12:19:11;29.60;99.90
23102;DHT22;11720;51.214;22.574;2023-08-21T12:21:39;29.40;98.20
23102;DHT22;11720;51.214;22.574;2023-08-21T12:24:05;29.30;98.10
23102;DHT22;11720;51.214;22.574;2023-08-21T12:29:01;29.40;96.40
23102;DHT22;11720;51.214;22.574;2023-08-21T12:33:54;29.50;97.10
23102;DHT22;11720;51.214;22.574;2023-08-21T12:36:20;29.60;96.90
23102;DHT22;11720;51.214;22.574;2023-08-21T12:38:45;29.70;96.90
23102;DHT22;11720;51.214;22.574;2023-08-21T12:46:03;30.10;96.80
23102;DHT22;11720;51.214;22.574;2023-08-21T12:48:29;30.20;96.90
23102;DHT22;11720;51.214;22.574;2023-08-21T12:58:13;30.30;95.00
23102;DHT22;11720;51.214;22.574;2023-08-21T13:00:39;30.30;94.50
23102;DHT22;11720;51.214;22.574;2023-08-21T13:03:05;30.30;92.90
23102;DHT22;11720;51.214;22.574;2023-08-21T13:15:17;30.40;92.40
23102;DHT22;11720;51.214;22.574;2023-08-21T13:17:42;30.70;97.00
23102;DHT22;11720;51.214;22.574;2023-08-21T13:20:09;30.70;98.50
23102;DHT22;11720;51.214;22.574;2023-08-21T13:22:50;30.30;92.60
23102;DHT22;11720;51.214;22.574;2023-08-21T13:25:19;30.50;90.10
23102;DHT22;11720;51.214;22.574;2023-08-21T13:27:46;30.60;90.50
